createdAt,value
2019-01-18T00:00:42.145Z,4.95
2019-01-18T00:03:09.198Z,9.90
2019-01-18T00:05:36.482Z,3.45
2019-01-18T00:08:04.656Z,4.72
2019-01-18T00:10:31.578Z,6.72
2019-01-18T00:12:58.478Z,6.75
2019-01-18T00:15:26.652Z,7.45
2019-01-18T00:17:53.456Z,4.10
2019-01-18T00:20:20.629Z,4.62
2019-01-18T00:22:47.659Z,7.37
2019-01-18T00:25:14.935Z,6.65
2019-01-18T00:27:41.750Z,4.85
2019-01-18T00:30:08.819Z,5.42
2019-01-18T00:32:35.886Z,6.33
2019-01-18T00:35:03.451Z,7.12
2019-01-18T00:37:30.745Z,5.83
2019-01-18T00:39:57.545Z,4.20
2019-01-18T00:42:24.376Z,4.42
2019-01-18T00:44:51.175Z,11.75
2019-01-18T00:47:18.085Z,6.35
2019-01-18T00:49:45.101Z,5.35
2019-01-18T00:52:11.907Z,4.72
2019-01-18T00:54:38.710Z,5.42
2019-01-18T00:57:05.626Z,5.25
2019-01-18T00:59:36.318Z,3.98
2019-01-18T01:02:01.261Z,4.97
2019-01-18T01:04:28.530Z,3.55
2019-01-18T01:06:55.361Z,6.55
2019-01-18T01:09:22.362Z,11.30
2019-01-18T01:11:49.444Z,5.33
2019-01-18T01:14:16.332Z,7.78
2019-01-18T01:16:43.233Z,4.80
2019-01-18T01:19:10.268Z,6.50
2019-01-18T01:21:37.527Z,6.72
2019-01-18T01:24:04.542Z,6.33
2019-01-18T01:26:31.811Z,9.10
2019-01-18T01:28:58.714Z,5.55
2019-01-18T01:31:25.989Z,5.97
2019-01-18T01:33:53.249Z,9.60
2019-01-18T01:36:20.641Z,4.08
2019-01-18T01:38:47.934Z,4.15
2019-01-18T01:41:14.834Z,6.05
2019-01-18T01:43:41.748Z,8.65
2019-01-18T01:46:08.649Z,7.28
2019-01-18T01:48:35.810Z,5.20
2019-01-18T01:51:02.916Z,4.42
2019-01-18T01:53:29.869Z,5.47
2019-01-18T01:55:57.013Z,4.75
2019-01-18T01:58:23.930Z,4.60
2019-01-18T02:00:50.851Z,5.80
2019-01-18T02:03:18.149Z,7.60
2019-01-18T02:05:45.057Z,4.60
2019-01-18T02:08:11.974Z,8.08
2019-01-18T02:10:39.117Z,5.28
2019-01-18T02:13:06.273Z,5.25
2019-01-18T02:15:33.203Z,4.17
2019-01-18T02:18:00.078Z,14.30
2019-01-18T02:20:27.108Z,6.25
2019-01-18T02:22:54.352Z,4.37
2019-01-18T02:25:21.434Z,5.35
2019-01-18T02:27:48.689Z,7.72
2019-01-18T02:30:18.357Z,4.08
2019-01-18T02:32:45.468Z,5.60
2019-01-18T02:35:13.038Z,5.83
2019-01-18T02:37:40.309Z,4.95
2019-01-18T02:40:07.944Z,8.83
2019-01-18T02:42:35.000Z,6.45
2019-01-18T02:45:02.040Z,5.00
2019-01-18T02:47:28.928Z,6.72
2019-01-18T02:49:55.755Z,4.40
2019-01-18T02:52:22.553Z,5.33
2019-01-18T02:54:49.370Z,5.70
2019-01-18T02:57:16.169Z,4.40
2019-01-18T02:59:42.982Z,5.20
2019-01-18T03:02:09.889Z,5.33
2019-01-18T03:04:36.901Z,11.50
2019-01-18T03:07:03.809Z,6.97
2019-01-18T03:09:30.743Z,11.68
2019-01-18T03:11:57.997Z,5.97
2019-01-18T03:14:26.133Z,7.35
2019-01-18T03:16:53.170Z,7.65
2019-01-18T03:19:20.242Z,4.72
2019-01-18T03:21:47.211Z,7.12
2019-01-18T03:24:14.109Z,7.20
2019-01-18T03:26:42.061Z,5.70
2019-01-18T03:29:09.073Z,5.60
2019-01-18T03:31:35.887Z,6.58
2019-01-18T03:34:02.789Z,4.50
2019-01-18T03:36:29.598Z,8.28
2019-01-18T03:38:56.774Z,9.00
2019-01-18T03:41:23.834Z,8.68
2019-01-18T03:43:50.841Z,5.30
2019-01-18T03:46:17.862Z,8.10
2019-01-18T03:48:44.961Z,14.75
2019-01-18T03:51:11.873Z,5.50
2019-01-18T03:53:38.877Z,9.05
2019-01-18T03:56:05.894Z,5.80
2019-01-18T03:58:32.973Z,7.97
2019-01-18T04:00:59.889Z,15.25
2019-01-18T04:03:26.689Z,5.65
2019-01-18T04:05:53.500Z,6.20
2019-01-18T04:08:20.777Z,5.58
2019-01-18T04:10:48.205Z,5.67
2019-01-18T04:13:15.023Z,8.48
2019-01-18T04:15:42.179Z,10.28
2019-01-18T04:18:09.081Z,10.32
2019-01-18T04:20:35.994Z,4.45
2019-01-18T04:23:03.009Z,5.65
2019-01-18T04:25:31.525Z,3.22
2019-01-18T04:27:58.590Z,8.20
2019-01-18T04:30:33.043Z,6.75
2019-01-18T04:32:54.318Z,7.28
2019-01-18T04:35:21.312Z,6.40
2019-01-18T04:37:48.150Z,8.83
2019-01-18T04:40:17.574Z,8.03
2019-01-18T04:42:44.593Z,3.37
2019-01-18T04:45:11.733Z,3.33
2019-01-18T04:47:39.002Z,8.60
2019-01-18T04:50:08.784Z,6.67
2019-01-18T04:52:36.004Z,3.65
2019-01-18T04:55:04.220Z,6.00
2019-01-18T04:57:31.320Z,4.08
2019-01-18T04:59:58.138Z,9.68
2019-01-18T05:02:25.156Z,2.50
2019-01-18T05:04:52.014Z,8.80
2019-01-18T05:07:19.198Z,7.42
2019-01-18T05:09:46.386Z,3.25
2019-01-18T05:12:13.562Z,4.47
2019-01-18T05:14:40.606Z,9.50
2019-01-18T05:17:07.778Z,3.42
2019-01-18T05:19:34.596Z,3.25
2019-01-18T05:22:01.521Z,4.60
2019-01-18T05:24:28.593Z,5.33
2019-01-18T05:26:55.522Z,2.50
2019-01-18T05:29:22.433Z,6.47
2019-01-18T05:31:49.338Z,7.25
2019-01-18T05:34:16.153Z,7.12
2019-01-18T05:36:43.103Z,3.62
2019-01-18T05:39:10.155Z,2.75
2019-01-18T05:41:37.218Z,3.70
2019-01-18T05:44:04.498Z,4.60
2019-01-18T05:46:31.419Z,5.97
2019-01-18T05:48:58.589Z,7.45
2019-01-18T05:51:25.403Z,4.28
2019-01-18T05:53:52.310Z,7.78
2019-01-18T05:56:19.122Z,10.50
2019-01-18T05:58:46.182Z,9.75
2019-01-18T06:01:14.525Z,7.55
2019-01-18T06:03:41.429Z,5.35
2019-01-18T06:06:08.426Z,8.03
2019-01-18T06:08:35.366Z,8.23
2019-01-18T06:11:02.305Z,7.37
2019-01-18T06:13:29.114Z,7.78
2019-01-18T06:15:56.032Z,6.80
2019-01-18T06:18:23.188Z,8.55
2019-01-18T06:20:50.017Z,8.25
2019-01-18T06:23:17.018Z,8.30
2019-01-18T06:25:44.174Z,8.15
2019-01-18T06:28:10.993Z,6.35
2019-01-18T06:30:38.014Z,6.08
2019-01-18T06:33:05.347Z,7.87
2019-01-18T06:35:32.355Z,8.03
2019-01-18T06:37:59.517Z,9.08
2019-01-18T06:40:26.534Z,11.90
2019-01-18T06:42:53.555Z,7.65
2019-01-18T06:45:21.165Z,6.10
2019-01-18T06:47:48.184Z,5.92
2019-01-18T06:50:16.346Z,8.08
2019-01-18T06:52:43.513Z,3.90
2019-01-18T06:55:10.641Z,5.40
2019-01-18T06:57:37.801Z,4.10
2019-01-18T07:00:09.137Z,11.93
2019-01-18T07:02:36.148Z,6.17
2019-01-18T07:05:03.982Z,5.60
2019-01-18T07:07:30.889Z,3.87
2019-01-18T07:09:58.161Z,6.08
2019-01-18T07:12:24.956Z,6.33
2019-01-18T07:14:51.978Z,7.50
2019-01-18T07:17:18.986Z,12.37
2019-01-18T07:19:46.181Z,5.22
2019-01-18T07:22:13.354Z,5.70
2019-01-18T07:24:40.270Z,7.15
2019-01-18T07:27:07.177Z,9.95
2019-01-18T07:29:34.098Z,7.37
2019-01-18T07:32:00.997Z,6.85
2019-01-18T07:34:27.918Z,8.73
2019-01-18T07:36:54.975Z,5.33
2019-01-18T07:39:22.502Z,5.37
2019-01-18T07:41:49.481Z,5.65
2019-01-18T07:44:16.499Z,7.80
2019-01-18T07:46:43.445Z,7.40
2019-01-18T07:49:10.509Z,9.03
2019-01-18T07:51:37.341Z,10.13
2019-01-18T07:54:04.357Z,7.58
2019-01-18T07:56:31.266Z,7.90
2019-01-18T07:58:58.188Z,9.50
2019-01-18T08:01:25.098Z,14.20
2019-01-18T08:03:52.134Z,7.65
2019-01-18T08:06:19.057Z,9.73
2019-01-18T08:08:45.953Z,7.75
2019-01-18T08:11:12.864Z,6.90
2019-01-18T08:13:40.208Z,6.30
2019-01-18T08:16:07.131Z,7.95
2019-01-18T08:18:34.205Z,9.83
2019-01-18T08:21:01.384Z,7.53
2019-01-18T08:23:28.181Z,9.05
2019-01-18T08:25:55.102Z,11.05
2019-01-18T08:28:21.996Z,6.33
2019-01-18T08:30:48.807Z,5.47
2019-01-18T08:33:15.970Z,25.55
2019-01-18T08:35:42.876Z,58.08
2019-01-18T08:38:09.678Z,41.53
2019-01-18T08:40:38.397Z,24.27
2019-01-18T08:43:07.469Z,19.87
2019-01-18T08:45:40.446Z,15.60
2019-01-18T08:48:07.783Z,8.98
2019-01-18T08:50:34.796Z,10.85
2019-01-18T08:53:01.821Z,9.18
2019-01-18T08:55:29.134Z,9.90
2019-01-18T08:57:56.138Z,9.13
2019-01-18T09:00:24.054Z,6.55
2019-01-18T09:02:51.069Z,8.28
2019-01-18T09:05:20.896Z,8.88
2019-01-18T09:07:47.806Z,7.55
2019-01-18T09:10:15.990Z,9.78
2019-01-18T09:12:42.900Z,8.03
2019-01-18T09:15:10.375Z,5.83
2019-01-18T09:17:37.724Z,8.63
2019-01-18T09:20:07.469Z,9.73
2019-01-18T09:22:34.402Z,6.47
2019-01-18T09:25:01.300Z,8.05
2019-01-18T09:27:28.312Z,8.43
2019-01-18T09:29:55.110Z,10.25
2019-01-18T09:32:22.224Z,8.05
2019-01-18T09:34:49.034Z,9.90
2019-01-18T09:37:16.100Z,7.15
2019-01-18T09:39:42.992Z,9.75
2019-01-18T09:42:09.914Z,11.97
2019-01-18T09:44:36.818Z,15.58
2019-01-18T09:47:03.817Z,9.90
2019-01-18T09:49:30.714Z,11.63
2019-01-18T09:51:57.966Z,8.25
2019-01-18T09:54:24.785Z,12.43
2019-01-18T09:56:51.595Z,15.53
2019-01-18T09:59:18.653Z,8.43
2019-01-18T10:01:49.305Z,12.63
2019-01-18T10:04:14.574Z,9.50
2019-01-18T10:06:41.473Z,7.00
2019-01-18T10:09:08.786Z,9.40
2019-01-18T10:11:35.738Z,10.45
2019-01-18T10:14:03.088Z,9.58
2019-01-18T10:16:30.982Z,8.83
2019-01-18T10:18:57.801Z,11.30
2019-01-18T10:21:24.717Z,16.62
2019-01-18T10:23:51.845Z,7.95
2019-01-18T10:26:19.118Z,12.15
2019-01-18T10:28:46.315Z,8.43
2019-01-18T10:31:13.153Z,12.43
2019-01-18T10:33:40.057Z,7.22
2019-01-18T10:36:07.062Z,10.80
2019-01-18T10:38:33.878Z,9.30
2019-01-18T10:41:00.803Z,13.28
2019-01-18T10:43:27.729Z,13.22
2019-01-18T10:45:54.623Z,9.63
2019-01-18T10:48:21.714Z,11.68
2019-01-18T10:50:48.705Z,11.40
2019-01-18T10:53:15.703Z,6.12
2019-01-18T10:55:42.522Z,8.70
2019-01-18T10:58:09.516Z,7.55
2019-01-18T11:00:36.804Z,8.45
2019-01-18T11:03:04.318Z,9.90
2019-01-18T11:05:31.620Z,10.30
2019-01-18T11:07:58.641Z,6.80
2019-01-18T11:10:25.561Z,7.83
2019-01-18T11:12:52.561Z,6.75
2019-01-18T11:15:21.581Z,5.78
2019-01-18T11:17:48.588Z,8.50
2019-01-18T11:20:18.715Z,6.20
2019-01-18T11:22:46.056Z,11.53
2019-01-18T11:25:14.446Z,6.10
2019-01-18T11:27:41.718Z,5.83
2019-01-18T11:30:12.221Z,7.97
2019-01-18T11:32:39.402Z,6.92
2019-01-18T11:35:06.434Z,8.58
2019-01-18T11:37:33.422Z,7.20
2019-01-18T11:40:00.516Z,8.40
2019-01-18T11:42:27.797Z,6.75
2019-01-18T11:44:54.601Z,6.50
2019-01-18T11:47:22.145Z,4.85
2019-01-18T11:49:48.954Z,7.10
2019-01-18T11:52:15.965Z,5.40
2019-01-18T11:54:44.041Z,6.45
2019-01-18T11:57:11.086Z,12.82
2019-01-18T11:59:37.989Z,5.17
2019-01-18T12:02:05.204Z,5.47
2019-01-18T12:04:32.339Z,8.30
2019-01-18T12:06:59.148Z,6.17
2019-01-18T12:09:26.052Z,8.65
2019-01-18T12:11:53.118Z,6.65
2019-01-18T12:14:20.013Z,4.92
2019-01-18T12:16:46.936Z,6.90
2019-01-18T12:19:14.189Z,10.30
2019-01-18T12:21:41.213Z,5.20
2019-01-18T12:24:08.112Z,4.60
2019-01-18T12:26:34.917Z,6.28
2019-01-18T12:29:01.843Z,7.12
2019-01-18T12:31:28.850Z,5.83
2019-01-18T12:33:55.670Z,7.20
2019-01-18T12:36:22.662Z,5.92
2019-01-18T12:38:49.689Z,7.87
2019-01-18T12:41:17.448Z,10.43
2019-01-18T12:43:44.584Z,8.35
2019-01-18T12:46:11.385Z,9.03
2019-01-18T12:48:38.613Z,11.60
2019-01-18T12:51:05.656Z,7.17
2019-01-18T12:53:32.467Z,5.85
2019-01-18T12:55:59.278Z,9.50
2019-01-18T12:58:26.512Z,25.05
2019-01-18T13:00:53.964Z,6.10
2019-01-18T13:03:20.984Z,5.83
2019-01-18T13:05:49.930Z,10.88
2019-01-18T13:08:16.941Z,6.70
2019-01-18T13:10:43.952Z,6.15
2019-01-18T13:13:11.236Z,6.80
2019-01-18T13:15:59.254Z,8.68
2019-01-18T13:18:26.066Z,8.43
2019-01-18T13:20:53.146Z,7.00
2019-01-18T13:23:20.069Z,13.22
2019-01-18T13:25:47.069Z,5.95
2019-01-18T13:28:13.996Z,6.08
2019-01-18T13:30:40.899Z,6.85
2019-01-18T13:33:08.244Z,8.55
2019-01-18T13:35:35.403Z,7.90
2019-01-18T13:38:02.305Z,7.17
2019-01-18T13:40:29.214Z,6.92
2019-01-18T13:42:56.108Z,6.80
2019-01-18T13:45:24.423Z,5.80
2019-01-18T13:47:51.620Z,6.20
2019-01-18T13:50:18.656Z,6.42
2019-01-18T13:52:45.757Z,5.25
2019-01-18T13:55:16.002Z,6.47
2019-01-18T13:57:42.912Z,5.33
2019-01-18T14:00:10.930Z,4.05
2019-01-18T14:02:40.599Z,5.00
2019-01-18T14:05:08.209Z,5.22
2019-01-18T14:07:35.361Z,4.80
2019-01-18T14:10:03.128Z,5.28
2019-01-18T14:12:30.294Z,7.83
2019-01-18T14:14:57.569Z,8.98
2019-01-18T14:17:24.369Z,6.87
2019-01-18T14:19:51.201Z,6.67
2019-01-18T14:22:18.273Z,4.25
2019-01-18T14:24:45.453Z,5.62
2019-01-18T14:27:12.369Z,5.78
2019-01-18T14:29:39.623Z,7.42
2019-01-18T14:32:06.673Z,3.08
2019-01-18T14:34:33.987Z,4.37
2019-01-18T14:37:00.910Z,5.78
2019-01-18T14:39:27.974Z,4.03
2019-01-18T14:41:54.925Z,7.22
2019-01-18T14:44:22.867Z,8.23
2019-01-18T14:46:49.965Z,6.85
2019-01-18T14:49:16.963Z,4.92
2019-01-18T14:51:44.020Z,6.65
2019-01-18T14:54:11.274Z,8.30
2019-01-18T14:56:38.365Z,5.10
2019-01-18T14:59:05.648Z,7.50
2019-01-18T15:01:32.550Z,5.87
2019-01-18T15:03:59.729Z,4.50
2019-01-18T15:06:26.763Z,8.10
2019-01-18T15:08:54.306Z,4.80
2019-01-18T15:11:21.435Z,5.40
2019-01-18T15:13:48.733Z,6.75
2019-01-18T15:16:15.545Z,16.77
2019-01-18T15:18:42.477Z,20.52
2019-01-18T15:21:09.436Z,13.43
2019-01-18T15:23:36.561Z,9.30
2019-01-18T15:26:03.818Z,8.68
2019-01-18T15:28:30.985Z,11.95
2019-01-18T15:30:57.998Z,17.65
2019-01-18T15:33:24.998Z,8.85
2019-01-18T15:35:52.798Z,6.72
2019-01-18T15:38:19.640Z,4.83
2019-01-18T15:40:47.868Z,9.48
2019-01-18T15:43:17.565Z,10.23
2019-01-18T15:45:44.561Z,26.52
2019-01-18T15:48:11.851Z,19.02
2019-01-18T15:50:39.453Z,22.50
2019-01-18T15:53:06.836Z,30.77
2019-01-18T15:55:34.304Z,19.80
2019-01-18T15:58:01.930Z,13.03
2019-01-18T16:00:31.416Z,7.97
2019-01-18T16:02:58.674Z,9.20
2019-01-18T16:05:26.065Z,13.20
2019-01-18T16:07:53.340Z,9.08
2019-01-18T16:10:20.558Z,8.50
2019-01-18T16:12:48.184Z,11.20
2019-01-18T16:15:16.201Z,8.18
2019-01-18T16:17:44.352Z,22.58
2019-01-18T16:20:13.793Z,31.77
2019-01-18T16:22:41.003Z,19.65
2019-01-18T16:25:11.783Z,27.40
2019-01-18T16:27:38.689Z,32.05
2019-01-18T16:30:08.838Z,31.48
2019-01-18T16:32:35.898Z,22.48
2019-01-18T16:35:03.568Z,24.65
2019-01-18T16:37:30.726Z,55.45
2019-01-18T16:39:57.890Z,51.68
2019-01-18T16:42:24.680Z,45.15
2019-01-18T16:44:51.826Z,39.73
2019-01-18T16:47:18.889Z,29.48
2019-01-18T16:49:46.348Z,28.25
2019-01-18T16:52:13.133Z,38.00
2019-01-18T16:54:40.176Z,28.85
2019-01-18T16:57:07.053Z,25.55
2019-01-18T16:59:34.081Z,25.52
2019-01-18T17:02:00.888Z,18.62
2019-01-18T17:04:27.790Z,16.17
2019-01-18T17:06:54.801Z,18.90
2019-01-18T17:09:21.602Z,23.70
2019-01-18T17:11:49.194Z,37.73
2019-01-18T17:14:16.415Z,41.45
2019-01-18T17:16:44.993Z,35.73
2019-01-18T17:19:12.172Z,30.27
2019-01-18T17:21:39.560Z,54.35
2019-01-18T17:24:06.602Z,36.75
2019-01-18T17:26:33.854Z,43.68
2019-01-18T17:29:01.868Z,33.58
2019-01-18T17:31:29.110Z,21.20
2019-01-18T17:33:56.117Z,22.80
2019-01-18T17:36:48.634Z,33.10
2019-01-18T17:39:31.102Z,21.05
2019-01-18T17:42:40.476Z,25.70
2019-01-18T17:45:45.094Z,22.45
2019-01-18T17:49:15.117Z,22.30
2019-01-18T17:52:09.125Z,12.60
2019-01-18T17:55:04.629Z,19.98
2019-01-18T17:58:04.735Z,45.05
2019-01-18T18:01:20.062Z,40.50
2019-01-18T18:04:00.616Z,54.95
2019-01-18T18:06:59.027Z,112.22
2019-01-18T18:09:32.518Z,107.20
2019-01-18T18:12:50.817Z,86.25
2019-01-18T18:15:33.510Z,70.40
2019-01-18T18:18:18.790Z,103.85
2019-01-18T18:21:26.182Z,94.40
2019-01-18T18:24:23.317Z,102.10
2019-01-18T18:27:16.984Z,95.47
2019-01-18T18:30:15.818Z,53.83
2019-01-18T18:33:23.669Z,43.30
2019-01-18T18:36:05.825Z,37.10
2019-01-18T18:39:30.288Z,62.90
2019-01-18T18:42:32.609Z,146.65
2019-01-18T18:45:43.009Z,88.50
2019-01-18T18:48:41.556Z,61.37
2019-01-18T18:51:52.098Z,49.38
2019-01-18T18:55:00.958Z,54.73
2019-01-18T18:58:13.042Z,52.90
2019-01-18T19:01:22.004Z,65.37
2019-01-18T19:04:21.810Z,60.10
2019-01-18T19:07:23.036Z,39.42
2019-01-18T19:10:28.138Z,58.58
2019-01-18T19:13:31.132Z,74.00
2019-01-18T19:16:33.175Z,64.60
2019-01-18T19:19:36.390Z,55.70
2019-01-18T19:22:50.226Z,62.23
2019-01-18T19:25:35.757Z,57.58
2019-01-18T19:29:02.548Z,40.38
2019-01-18T19:32:04.985Z,28.55
2019-01-18T19:35:04.228Z,33.20
2019-01-18T19:38:15.201Z,29.27
2019-01-18T19:40:58.805Z,25.88
2019-01-18T19:44:12.840Z,27.42
2019-01-18T19:47:09.794Z,44.88
2019-01-18T19:50:10.125Z,49.60
2019-01-18T19:53:13.393Z,59.15
2019-01-18T19:56:04.726Z,117.67
2019-01-18T19:58:53.398Z,132.12
2019-01-18T20:01:33.922Z,55.70
2019-01-18T20:04:33.329Z,45.73
2019-01-18T20:07:38.040Z,37.15
2019-01-18T20:10:58.845Z,30.40
2019-01-18T20:13:38.566Z,24.37
2019-01-18T20:16:49.253Z,23.57
2019-01-18T20:19:25.860Z,25.45
2019-01-18T20:22:29.908Z,26.75
2019-01-18T20:25:40.290Z,27.52
2019-01-18T20:29:01.509Z,22.45
2019-01-18T20:31:56.004Z,29.00
2019-01-18T20:34:55.754Z,22.05
2019-01-18T20:37:50.757Z,21.02
2019-01-18T20:40:42.357Z,21.73
2019-01-18T20:43:22.896Z,22.00
2019-01-18T20:46:46.962Z,17.87
2019-01-18T20:50:13.726Z,23.85
2019-01-18T20:53:31.053Z,20.10
2019-01-18T20:56:21.742Z,24.45
2019-01-18T20:59:11.213Z,24.75
2019-01-18T21:02:00.842Z,18.27
2019-01-18T21:05:27.969Z,18.65
2019-01-18T21:08:32.310Z,19.05
2019-01-18T21:11:50.046Z,19.25
2019-01-18T21:14:33.386Z,17.12
2019-01-18T21:17:45.552Z,23.50
2019-01-18T21:20:50.257Z,19.52
2019-01-18T21:23:54.686Z,19.57
2019-01-18T21:26:51.626Z,21.65
2019-01-18T21:29:49.457Z,21.42
2019-01-18T21:32:51.800Z,18.37
2019-01-18T21:35:57.407Z,19.50
2019-01-18T21:38:49.400Z,17.75
2019-01-18T21:42:05.533Z,21.35
2019-01-18T21:44:50.730Z,20.35
2019-01-18T21:47:43.065Z,20.15
2019-01-18T21:50:50.939Z,20.45
2019-01-18T21:53:32.122Z,17.32
2019-01-18T21:56:25.077Z,21.90
2019-01-18T21:59:16.976Z,16.48
2019-01-18T22:02:23.083Z,13.88
2019-01-18T22:05:34.943Z,18.10
2019-01-18T22:08:49.585Z,18.10
2019-01-18T22:11:46.464Z,17.48
2019-01-18T22:14:52.608Z,18.95
2019-01-18T22:18:10.514Z,16.65
2019-01-18T22:21:11.834Z,39.75
2019-01-18T22:24:01.508Z,26.05
2019-01-18T22:27:09.741Z,24.12
2019-01-18T22:30:02.146Z,22.75
2019-01-18T22:32:44.539Z,24.37
2019-01-18T22:35:44.452Z,27.17
2019-01-18T22:38:52.816Z,20.85
2019-01-18T22:41:47.577Z,24.15
2019-01-18T22:45:05.156Z,23.90
2019-01-18T22:48:03.858Z,31.97
2019-01-18T22:51:14.576Z,26.70
2019-01-18T22:53:53.305Z,30.52
2019-01-18T22:56:50.399Z,27.80
2019-01-18T23:00:00.591Z,21.05
2019-01-18T23:02:49.202Z,23.90
2019-01-18T23:05:50.633Z,33.00
2019-01-18T23:08:54.102Z,34.13
2019-01-18T23:11:30.447Z,40.85
2019-01-18T23:14:17.732Z,28.15
2019-01-18T23:17:23.854Z,34.55
2019-01-18T23:20:17.058Z,36.85
2019-01-18T23:23:27.546Z,31.42
2019-01-18T23:26:33.827Z,30.37
2019-01-18T23:29:06.593Z,36.77
2019-01-18T23:32:14.102Z,38.00
2019-01-18T23:34:50.791Z,51.40
2019-01-18T23:37:29.348Z,47.88
2019-01-18T23:40:53.302Z,41.10
2019-01-18T23:43:35.389Z,45.90
2019-01-18T23:46:26.583Z,43.92
2019-01-18T23:49:31.401Z,40.83
2019-01-18T23:52:37.286Z,34.53
2019-01-18T23:55:35.815Z,35.55
2019-01-18T23:58:42.277Z,30.52
